Time;durP1;ratioP1;P1;durP2;ratioP2;P2;SDS_P1;SDS_P2;PMS_P1;PMS_P2;Temp;Humidity;BMP_temperature;BMP_pressure;BME280_temperature;BME280_humidity;BME280_pressure;Samples;Min_cycle;Max_cycle;Signal;HPM_P1;HPM_P2
2021/08/08 00:02:02;;;;;;;2.30;0.68;;;18.20;99.90;;;;;;4400800;32;20082;-72
2021/08/08 00:04:27;;;;;;;0.60;0.60;;;18.10;99.90;;;;;;4401780;32;20120;-73
2021/08/08 00:06:53;;;;;;;0.30;0.30;;;18.00;99.90;;;;;;4401877;32;20137;-74
2021/08/08 00:09:18;;;;;;;0.30;0.30;;;18.10;99.90;;;;;;4401397;32;20129;-73
2021/08/08 00:11:44;;;;;;;0.30;0.30;;;18.10;99.90;;;;;;4400357;32;20078;-73
2021/08/08 00:14:09;;;;;;;0.40;0.40;;;18.20;99.90;;;;;;4401161;32;20121;-73
2021/08/08 00:16:36;;;;;;;0.20;0.20;;;18.20;99.90;;;;;;4401039;32;20601;-72
2021/08/08 00:19:01;;;;;;;1.65;0.50;;;18.30;99.90;;;;;;4400001;32;20083;-73
2021/08/08 00:21:27;;;;;;;0.60;0.60;;;18.20;99.90;;;;;;4400632;32;20070;-73
2021/08/08 00:23:52;;;;;;;0.40;0.40;;;18.10;99.90;;;;;;4401725;32;20163;-73
2021/08/08 00:26:18;;;;;;;0.30;0.30;;;18.10;99.90;;;;;;4400395;32;20069;-73
2021/08/08 00:28:45;;;;;;;0.30;0.30;;;18.00;99.90;;;;;;4400206;32;20131;-73
2021/08/08 00:31:11;;;;;;;0.25;0.25;;;18.00;99.90;;;;;;4401813;32;20127;-73
2021/08/08 00:33:36;;;;;;;0.30;0.30;;;17.90;99.90;;;;;;4400664;32;20499;-73
2021/08/08 00:36:02;;;;;;;0.37;0.37;;;18.00;99.90;;;;;;4400113;32;20086;-73
2021/08/08 00:38:28;;;;;;;0.28;0.28;;;17.90;99.90;;;;;;4401149;32;20078;-72
2021/08/08 00:40:53;;;;;;;0.30;0.30;;;17.90;99.90;;;;;;4400384;32;20570;-73
2021/08/08 00:43:19;;;;;;;0.25;0.25;;;17.80;99.90;;;;;;4400210;32;20113;-73
2021/08/08 00:45:44;;;;;;;0.30;0.30;;;17.80;99.90;;;;;;4401196;32;20078;-73
2021/08/08 00:48:10;;;;;;;0.30;0.30;;;17.90;99.90;;;;;;4401032;32;20125;-73
2021/08/08 00:50:36;;;;;;;0.40;0.40;;;17.90;99.90;;;;;;4400492;32;20086;-73
2021/08/08 00:53:02;;;;;;;0.30;0.30;;;17.90;99.90;;;;;;4400465;32;20081;-73
2021/08/08 00:55:27;;;;;;;0.30;0.30;;;17.80;99.90;;;;;;4400672;32;20406;-73
2021/08/08 00:57:53;;;;;;;0.30;0.30;;;17.80;99.90;;;;;;4401548;32;20117;-73
2021/08/08 01:00:19;;;;;;;1.27;0.68;;;17.70;99.90;;;;;;4400273;32;20133;-72
2021/08/08 01:02:49;;;;;;;2.00;0.40;;;17.70;99.90;;;;;;4399928;32;20069;-72
2021/08/08 01:05:21;;;;;;;0.40;0.40;;;17.80;99.90;;;;;;4400992;32;20122;-73
2021/08/08 01:07:53;;;;;;;0.40;0.40;;;17.70;99.90;;;;;;4401576;32;20112;-74
2021/08/08 01:10:19;;;;;;;0.28;0.28;;;17.70;99.90;;;;;;4401414;32;20423;-73
2021/08/08 01:12:46;;;;;;;0.75;0.47;;;17.60;99.90;;;;;;4400797;32;20129;-73
2021/08/08 01:15:12;;;;;;;0.30;0.30;;;17.50;99.90;;;;;;4400762;32;20125;-74
2021/08/08 01:17:38;;;;;;;0.30;0.30;;;17.50;99.90;;;;;;4400113;32;20073;-74
2021/08/08 01:20:07;;;;;;;0.60;0.60;;;17.60;99.90;;;;;;4400252;32;20121;-73
2021/08/08 01:22:34;;;;;;;0.55;0.55;;;17.50;99.90;;;;;;4399773;32;20070;-74
2021/08/08 01:25:01;;;;;;;0.30;0.30;;;17.50;99.90;;;;;;4400724;32;20144;-73
2021/08/08 01:27:28;;;;;;;0.30;0.30;;;17.50;99.90;;;;;;4400151;32;20128;-73
2021/08/08 01:29:55;;;;;;;0.60;0.30;;;17.60;99.90;;;;;;4399724;32;20071;-73
2021/08/08 01:32:23;;;;;;;0.50;0.50;;;17.50;99.90;;;;;;4399783;32;20121;-73
2021/08/08 01:34:48;;;;;;;0.40;0.40;;;17.60;99.90;;;;;;4400658;32;20090;-74
2021/08/08 01:37:20;;;;;;;0.20;0.20;;;17.50;99.90;;;;;;4401263;32;20542;-74
2021/08/08 01:39:50;;;;;;;0.28;0.28;;;17.50;99.90;;;;;;4400827;32;20137;-73
2021/08/08 01:42:16;;;;;;;0.50;0.50;;;17.50;99.90;;;;;;4400120;32;20066;-73
2021/08/08 01:44:47;;;;;;;2.85;0.90;;;17.50;99.90;;;;;;4400269;32;20151;-74
2021/08/08 01:47:13;;;;;;;;;;;17.40;99.90;;;;;;4400170;32;20062;-73
2021/08/08 01:49:43;;;;;;;0.20;0.20;;;17.40;99.90;;;;;;4399643;32;20045;-73
2021/08/08 01:52:09;;;;;;;0.30;0.30;;;17.50;99.90;;;;;;4400540;32;20062;-73
2021/08/08 01:54:36;;;;;;;0.40;0.40;;;17.40;99.90;;;;;;4400196;32;20069;-73
2021/08/08 01:57:02;;;;;;;0.90;0.80;;;17.30;99.90;;;;;;4399607;32;20091;-73
2021/08/08 01:59:27;;;;;;;0.32;0.32;;;17.40;99.90;;;;;;4399922;32;20078;-73
2021/08/08 02:01:53;;;;;;;0.32;0.32;;;17.30;99.90;;;;;;4400431;32;20082;-73
2021/08/08 02:04:21;;;;;;;0.30;0.30;;;17.30;99.90;;;;;;4399880;32;20070;-74
2021/08/08 02:06:47;;;;;;;0.40;0.32;;;17.30;99.90;;;;;;4400100;32;20136;-73
2021/08/08 02:09:13;;;;;;;0.50;0.50;;;17.20;99.90;;;;;;4400994;32;20121;-73
2021/08/08 02:11:38;;;;;;;0.35;0.35;;;17.30;99.90;;;;;;4399729;32;20510;-73
2021/08/08 02:14:05;;;;;;;0.40;0.40;;;17.30;99.90;;;;;;4399975;32;20066;-72
2021/08/08 02:16:31;;;;;;;0.40;0.40;;;17.30;99.90;;;;;;4399535;32;20087;-73
2021/08/08 02:18:57;;;;;;;0.40;0.40;;;17.20;99.90;;;;;;4398523;32;20086;-72
2021/08/08 02:21:23;;;;;;;0.62;0.62;;;17.30;99.90;;;;;;4400464;32;20120;-73
2021/08/08 02:23:48;;;;;;;0.65;0.30;;;17.30;99.90;;;;;;4400306;32;20078;-73
2021/08/08 02:26:14;;;;;;;0.30;0.30;;;17.30;99.90;;;;;;4399804;32;20113;-73
2021/08/08 02:28:39;;;;;;;0.20;0.20;;;17.30;99.90;;;;;;4400562;32;20090;-73
2021/08/08 02:31:05;;;;;;;0.40;0.40;;;17.40;99.90;;;;;;4400745;32;20701;-73
2021/08/08 02:33:30;;;;;;;0.35;0.35;;;17.40;99.90;;;;;;4397327;32;20071;-73
2021/08/08 02:35:56;;;;;;;0.30;0.30;;;17.30;99.90;;;;;;4384904;32;20126;-73
2021/08/08 02:38:21;;;;;;;0.30;0.30;;;17.30;99.90;;;;;;4385569;32;20065;-73
2021/08/08 02:40:47;;;;;;;0.52;0.50;;;17.30;99.90;;;;;;4384340;32;20070;-73
2021/08/08 02:43:13;;;;;;;1.85;0.52;;;17.30;99.90;;;;;;4384382;32;20078;-73
2021/08/08 02:45:38;;;;;;;0.30;0.30;;;17.20;99.90;;;;;;4385332;32;20082;-73
2021/08/08 02:48:04;;;;;;;0.40;0.40;;;17.10;99.90;;;;;;4383619;32;20087;-74
2021/08/08 02:50:29;;;;;;;0.30;0.30;;;17.10;99.90;;;;;;4384299;32;20121;-73
2021/08/08 02:52:55;;;;;;;0.30;0.30;;;17.10;99.90;;;;;;4385501;32;20069;-73
2021/08/08 02:55:21;;;;;;;0.30;0.30;;;17.20;99.90;;;;;;4384328;32;20469;-73
2021/08/08 02:57:47;;;;;;;2.72;1.35;;;17.20;99.90;;;;;;4385305;32;20082;-73
2021/08/08 03:00:13;;;;;;;0.30;0.30;;;17.30;99.90;;;;;;4385607;32;20070;-73
2021/08/08 03:02:39;;;;;;;1.90;1.00;;;17.30;99.90;;;;;;4384878;32;20499;-73
2021/08/08 03:05:05;;;;;;;0.52;0.50;;;17.30;99.90;;;;;;4383657;32;20502;-73
2021/08/08 03:07:30;;;;;;;0.30;0.30;;;17.30;99.90;;;;;;4384590;32;20421;-73
2021/08/08 03:09:56;;;;;;;0.30;0.30;;;17.20;99.90;;;;;;4383920;32;20178;-73
2021/08/08 03:12:21;;;;;;;0.40;0.40;;;17.20;99.90;;;;;;4385087;32;20107;-72
2021/08/08 03:14:47;;;;;;;0.30;0.30;;;17.20;99.90;;;;;;4384548;32;20070;-73
2021/08/08 03:17:12;;;;;;;0.40;0.40;;;17.20;99.90;;;;;;4384728;32;20078;-73
2021/08/08 03:19:38;;;;;;;0.30;0.30;;;17.10;99.90;;;;;;4384280;32;20479;-74
2021/08/08 03:22:04;;;;;;;0.57;0.57;;;17.10;99.90;;;;;;4385348;32;20086;-73
2021/08/08 03:24:30;;;;;;;0.50;0.50;;;17.20;99.90;;;;;;4383554;32;20066;-73
2021/08/08 03:26:55;;;;;;;0.30;0.30;;;17.20;99.90;;;;;;4386711;32;20142;-73
2021/08/08 03:29:21;;;;;;;0.40;0.40;;;17.20;99.90;;;;;;4386574;32;20499;-73
2021/08/08 03:31:46;;;;;;;1.65;0.68;;;17.30;99.90;;;;;;4387103;32;20410;-72
2021/08/08 03:34:12;;;;;;;0.30;0.30;;;17.30;99.90;;;;;;4392845;32;20140;-73
2021/08/08 03:36:37;;;;;;;0.40;0.40;;;17.30;99.90;;;;;;4402351;32;20074;-73
2021/08/08 03:39:03;;;;;;;0.30;0.30;;;17.30;99.90;;;;;;4401540;32;20066;-73
2021/08/08 03:41:29;;;;;;;0.30;0.30;;;17.20;99.90;;;;;;4401845;32;20067;-73
2021/08/08 03:43:54;;;;;;;0.40;0.40;;;17.30;99.90;;;;;;4401143;32;20077;-73
2021/08/08 03:46:20;;;;;;;0.30;0.30;;;17.20;99.90;;;;;;4401773;32;20071;-73
2021/08/08 03:48:45;;;;;;;0.37;0.37;;;17.10;99.90;;;;;;4401034;32;20079;-73
2021/08/08 03:51:11;;;;;;;0.37;0.37;;;17.10;99.90;;;;;;4402070;32;20573;-73
2021/08/08 03:53:36;;;;;;;0.30;0.30;;;17.20;99.90;;;;;;4401469;32;20063;-73
2021/08/08 03:56:02;;;;;;;0.30;0.30;;;17.10;99.90;;;;;;4401105;32;20399;-73
2021/08/08 03:58:30;;;;;;;0.30;0.30;;;17.20;99.90;;;;;;4402541;32;20061;-72
2021/08/08 04:00:58;;;;;;;0.20;0.20;;;17.20;99.90;;;;;;4402388;32;20074;-73
2021/08/08 04:03:23;;;;;;;0.30;0.30;;;17.10;99.90;;;;;;4401277;32;20117;-73
2021/08/08 04:05:48;;;;;;;0.40;0.40;;;17.10;99.90;;;;;;4401695;32;20078;-73
2021/08/08 04:08:14;;;;;;;0.22;0.22;;;17.10;99.90;;;;;;4402029;32;20125;-73
2021/08/08 04:10:40;;;;;;;0.60;0.60;;;17.10;99.90;;;;;;4401243;32;20070;-73
2021/08/08 04:13:05;;;;;;;0.40;0.40;;;17.10;99.90;;;;;;4401038;32;20428;-73
2021/08/08 04:15:31;;;;;;;0.30;0.30;;;17.10;99.90;;;;;;4402155;32;20070;-73
2021/08/08 04:17:56;;;;;;;0.28;0.28;;;17.10;99.90;;;;;;4400391;32;20074;-73
2021/08/08 04:20:22;;;;;;;0.57;0.32;;;17.10;99.90;;;;;;4402056;32;20518;-73
2021/08/08 04:22:47;;;;;;;0.20;0.20;;;17.00;99.90;;;;;;4400934;32;20103;-75
2021/08/08 04:25:13;;;;;;;0.22;0.22;;;17.00;99.90;;;;;;4400766;32;20062;-73
2021/08/08 04:27:38;;;;;;;0.98;0.85;;;17.00;99.90;;;;;;4400388;32;20081;-73
2021/08/08 04:30:04;;;;;;;0.32;0.32;;;17.00;99.90;;;;;;4401926;32;20063;-73
2021/08/08 04:32:30;;;;;;;0.40;0.40;;;17.00;99.90;;;;;;4400966;32;20086;-73
2021/08/08 04:34:55;;;;;;;0.30;0.30;;;16.90;99.90;;;;;;4400837;32;20539;-73
2021/08/08 04:37:21;;;;;;;0.30;0.30;;;16.90;99.90;;;;;;4401160;32;20065;-73
2021/08/08 04:39:49;;;;;;;2.05;1.05;;;17.00;99.90;;;;;;4401217;32;20074;-73
2021/08/08 04:42:15;;;;;;;0.30;0.30;;;17.10;99.90;;;;;;4401937;32;20070;-73
2021/08/08 04:44:41;;;;;;;0.25;0.25;;;17.10;99.90;;;;;;4401249;32;20116;-73
2021/08/08 04:47:06;;;;;;;0.28;0.28;;;17.00;99.90;;;;;;4401157;32;20078;-73
2021/08/08 04:49:31;;;;;;;0.82;0.43;;;17.00;99.90;;;;;;4401902;32;20078;-73
2021/08/08 04:51:59;;;;;;;0.37;0.37;;;17.00;99.90;;;;;;4400360;32;20083;-73
2021/08/08 04:54:25;;;;;;;1.73;0.47;;;17.00;99.90;;;;;;4401563;32;20121;-73
2021/08/08 04:56:50;;;;;;;0.65;0.40;;;17.10;99.90;;;;;;4400953;32;20082;-73
2021/08/08 04:59:16;;;;;;;0.40;0.40;;;17.00;99.90;;;;;;4400649;32;20116;-73
2021/08/08 05:01:41;;;;;;;0.30;0.30;;;17.10;99.90;;;;;;4400254;32;20218;-73
2021/08/08 05:04:07;;;;;;;0.22;0.22;;;17.00;99.90;;;;;;4400610;32;20066;-74
2021/08/08 05:06:33;;;;;;;0.50;0.50;;;17.00;99.90;;;;;;4400362;32;20405;-73
2021/08/08 05:08:59;;;;;;;0.40;0.40;;;17.00;99.90;;;;;;4400491;32;20117;-73
2021/08/08 05:11:24;;;;;;;0.30;0.30;;;17.00;99.90;;;;;;4401540;32;20410;-75
2021/08/08 05:13:50;;;;;;;0.30;0.30;;;17.10;99.90;;;;;;4400217;32;20066;-73
2021/08/08 05:16:15;;;;;;;0.30;0.30;;;17.00;99.90;;;;;;4399901;32;20078;-73
2021/08/08 05:18:41;;;;;;;0.40;0.40;;;17.10;99.90;;;;;;4399865;32;20417;-73
2021/08/08 05:21:07;;;;;;;0.30;0.30;;;17.10;99.90;;;;;;4400881;32;20070;-73
2021/08/08 05:23:33;;;;;;;0.40;0.40;;;17.20;99.90;;;;;;4400453;32;20129;-72
2021/08/08 05:25:59;;;;;;;2.05;0.77;;;17.20;99.90;;;;;;4400440;32;20090;-73
2021/08/08 05:28:25;;;;;;;0.30;0.30;;;17.20;99.90;;;;;;4400366;32;20490;-73
2021/08/08 05:30:51;;;;;;;0.32;0.32;;;17.20;99.90;;;;;;4400102;32;20086;-73
2021/08/08 05:33:16;;;;;;;0.85;0.30;;;17.30;99.90;;;;;;4399651;32;20166;-73
2021/08/08 05:35:42;;;;;;;0.40;0.40;;;17.20;99.90;;;;;;4386412;32;20082;-73
2021/08/08 05:38:08;;;;;;;0.30;0.30;;;17.20;99.90;;;;;;4385745;32;20070;-73
2021/08/08 05:40:33;;;;;;;0.22;0.22;;;17.30;99.90;;;;;;4386081;32;20083;-74
2021/08/08 05:42:59;;;;;;;0.40;0.40;;;17.30;99.90;;;;;;4384932;32;20070;-73
2021/08/08 05:45:24;;;;;;;0.37;0.37;;;17.30;99.90;;;;;;4385984;32;20074;-73
2021/08/08 05:47:50;;;;;;;0.47;0.47;;;17.40;99.90;;;;;;4384311;32;20075;-73
2021/08/08 05:50:16;;;;;;;0.30;0.30;;;17.40;99.90;;;;;;4385957;32;20328;-74
2021/08/08 05:52:50;;;;;;;0.30;0.30;;;17.50;99.90;;;;;;4384643;32;20095;-74
2021/08/08 05:55:17;;;;;;;0.30;0.30;;;17.50;99.90;;;;;;4384815;32;20126;-73
2021/08/08 05:57:42;;;;;;;0.28;0.28;;;17.50;99.90;;;;;;4385965;32;20476;-73
2021/08/08 06:00:08;;;;;;;0.30;0.30;;;17.50;99.90;;;;;;4385505;32;20074;-73
2021/08/08 06:02:34;;;;;;;0.50;0.50;;;17.50;99.90;;;;;;4384953;32;20134;-73
2021/08/08 06:04:59;;;;;;;0.37;0.37;;;17.60;99.90;;;;;;4385772;32;20074;-72
2021/08/08 06:07:25;;;;;;;0.40;0.40;;;17.60;99.90;;;;;;4386127;32;20444;-72
2021/08/08 06:09:50;;;;;;;0.30;0.30;;;17.70;99.90;;;;;;4384389;32;20086;-72
2021/08/08 06:12:16;;;;;;;0.20;0.20;;;17.70;99.90;;;;;;4384995;32;20118;-72
2021/08/08 06:14:41;;;;;;;0.40;0.40;;;17.80;99.90;;;;;;4385593;32;20400;-72
2021/08/08 06:17:06;;;;;;;0.30;0.30;;;17.90;99.90;;;;;;4384811;32;20070;-72
2021/08/08 06:19:32;;;;;;;0.45;0.40;;;17.90;99.90;;;;;;4384671;32;20091;-72
2021/08/08 06:21:57;;;;;;;1.52;0.50;;;17.90;99.90;;;;;;4382055;32;74421;-73
2021/08/08 06:24:23;;;;;;;0.30;0.30;;;18.00;99.90;;;;;;4385489;32;20074;-72
2021/08/08 06:26:49;;;;;;;0.30;0.30;;;18.10;99.90;;;;;;4384894;32;20083;-72
2021/08/08 06:29:14;;;;;;;0.30;0.30;;;18.10;99.90;;;;;;4384515;32;20062;-72
2021/08/08 06:31:40;;;;;;;0.30;0.30;;;18.20;99.90;;;;;;4384466;32;20058;-72
2021/08/08 06:34:05;;;;;;;0.32;0.32;;;18.20;99.90;;;;;;4383862;32;20515;-72
2021/08/08 06:36:31;;;;;;;3.37;1.08;;;18.30;99.90;;;;;;4385221;32;20079;-72
2021/08/08 06:38:58;;;;;;;1.05;0.85;;;18.30;99.90;;;;;;4384752;32;20083;-72
2021/08/08 06:41:24;;;;;;;0.22;0.22;;;18.30;99.90;;;;;;4385297;32;20096;-72
2021/08/08 06:43:50;;;;;;;0.28;0.28;;;18.40;99.90;;;;;;4384512;32;20174;-72
2021/08/08 06:46:15;;;;;;;0.30;0.30;;;18.40;99.90;;;;;;4384763;32;20074;-72
2021/08/08 06:48:41;;;;;;;0.30;0.30;;;18.50;99.90;;;;;;4382897;32;20083;-72
2021/08/08 06:51:07;;;;;;;0.30;0.30;;;18.50;99.90;;;;;;4384708;32;20067;-72
2021/08/08 06:53:33;;;;;;;0.30;0.30;;;18.50;99.90;;;;;;4383842;32;20082;-72
2021/08/08 06:55:59;;;;;;;0.52;0.52;;;18.50;99.90;;;;;;4383897;32;20558;-72
2021/08/08 06:58:25;;;;;;;0.30;0.30;;;18.50;99.90;;;;;;4384517;32;20087;-72
2021/08/08 07:00:50;;;;;;;0.20;0.20;;;18.60;99.90;;;;;;4383339;32;20062;-72
2021/08/08 07:03:16;;;;;;;0.25;0.25;;;18.70;99.90;;;;;;4383768;32;20073;-72
2021/08/08 07:05:41;;;;;;;0.37;0.37;;;18.80;99.90;;;;;;4384775;32;20417;-72
2021/08/08 07:08:07;;;;;;;0.30;0.30;;;18.80;99.90;;;;;;4383718;32;20125;-72
2021/08/08 07:10:32;;;;;;;0.30;0.30;;;18.90;99.90;;;;;;4383232;32;20461;-72
2021/08/08 07:12:58;;;;;;;0.45;0.45;;;18.90;99.90;;;;;;4384063;32;20062;-72
2021/08/08 07:15:23;;;;;;;0.25;0.25;;;19.00;99.90;;;;;;4384518;32;20075;-72
2021/08/08 07:17:49;;;;;;;0.30;0.30;;;19.10;99.90;;;;;;4383335;32;20496;-72
2021/08/08 07:20:14;;;;;;;0.30;0.30;;;19.10;99.90;;;;;;4384272;32;20058;-72
2021/08/08 07:22:40;;;;;;;0.30;0.30;;;19.10;99.90;;;;;;4383759;32;20086;-72
2021/08/08 07:25:06;;;;;;;0.30;0.30;;;19.20;99.90;;;;;;4383609;32;20485;-72
2021/08/08 07:27:32;;;;;;;0.30;0.30;;;19.30;99.90;;;;;;4384657;32;20121;-72
2021/08/08 07:29:57;;;;;;;0.20;0.20;;;19.40;99.90;;;;;;4384635;32;20122;-72
2021/08/08 07:32:23;;;;;;;0.28;0.28;;;19.40;99.90;;;;;;4383395;32;20085;-72
2021/08/08 07:34:49;;;;;;;0.20;0.20;;;19.50;99.90;;;;;;4393596;32;20131;-72
2021/08/08 07:37:14;;;;;;;0.30;0.30;;;19.60;99.90;;;;;;4398259;32;20074;-72
2021/08/08 07:39:40;;;;;;;0.30;0.30;;;19.60;99.90;;;;;;4398372;32;20131;-72
2021/08/08 07:42:05;;;;;;;0.30;0.30;;;19.60;99.90;;;;;;4398608;32;20461;-72
2021/08/08 07:44:31;;;;;;;0.30;0.30;;;19.60;99.90;;;;;;4398994;32;20113;-72
2021/08/08 07:46:56;;;;;;;0.30;0.30;;;19.70;99.90;;;;;;4398706;32;20125;-72
2021/08/08 07:49:22;;;;;;;0.20;0.20;;;19.90;99.90;;;;;;4398139;32;20695;-72
2021/08/08 07:51:47;;;;;;;0.20;0.20;;;19.90;99.90;;;;;;4398251;32;20089;-72
2021/08/08 07:54:13;;;;;;;0.20;0.20;;;20.10;99.90;;;;;;4398534;32;20071;-72
2021/08/08 07:56:38;;;;;;;0.20;0.20;;;20.30;99.90;;;;;;4398561;32;20126;-72
2021/08/08 07:59:04;;;;;;;0.20;0.20;;;20.30;99.90;;;;;;4398250;32;20568;-72
2021/08/08 08:01:31;;;;;;;1.20;0.62;;;20.30;99.90;;;;;;4399046;32;20128;-72
2021/08/08 08:03:57;;;;;;;0.25;0.25;;;20.20;99.90;;;;;;4398788;32;20067;-72
2021/08/08 08:06:22;;;;;;;0.32;0.32;;;20.20;99.90;;;;;;4397989;32;20074;-72
2021/08/08 08:08:47;;;;;;;0.20;0.20;;;20.30;99.90;;;;;;4399351;32;20121;-72
2021/08/08 08:11:13;;;;;;;5.05;1.20;;;20.50;99.90;;;;;;4398069;32;20073;-72
2021/08/08 08:13:39;;;;;;;0.20;0.20;;;20.70;99.90;;;;;;4401053;32;20095;-72
2021/08/08 08:16:04;;;;;;;0.20;0.20;;;20.80;99.90;;;;;;4400524;32;20066;-72
2021/08/08 08:18:30;;;;;;;7.78;0.40;;;20.90;99.90;;;;;;4400660;32;20067;-72
2021/08/08 08:20:56;;;;;;;1.08;0.62;;;20.90;99.90;;;;;;4400669;32;20158;-72
2021/08/08 08:23:22;;;;;;;0.20;0.20;;;20.90;99.90;;;;;;4401065;32;20074;-72
2021/08/08 08:25:47;;;;;;;0.30;0.30;;;21.10;99.90;;;;;;4400603;32;20066;-72
2021/08/08 08:28:13;;;;;;;0.20;0.20;;;21.40;99.90;;;;;;4400922;32;20514;-72
2021/08/08 08:30:39;;;;;;;0.30;0.30;;;21.60;99.90;;;;;;4401205;32;20502;-73
2021/08/08 08:33:06;;;;;;;0.20;0.20;;;21.80;99.90;;;;;;4400836;32;20433;-73
2021/08/08 08:35:32;;;;;;;0.20;0.20;;;21.70;99.90;;;;;;4385383;32;20095;-73
2021/08/08 08:37:57;;;;;;;0.20;0.20;;;21.80;99.90;;;;;;4385871;32;20071;-72
2021/08/08 08:40:23;;;;;;;0.20;0.20;;;21.90;99.90;;;;;;4385512;32;20077;-73
2021/08/08 08:42:50;;;;;;;0.22;0.22;;;21.90;99.90;;;;;;4385460;32;20084;-73
2021/08/08 08:45:16;;;;;;;0.20;0.20;;;21.80;99.90;;;;;;4386347;32;20082;-73
2021/08/08 08:47:43;;;;;;;0.20;0.20;;;21.60;99.90;;;;;;4384944;32;20067;-73
2021/08/08 08:50:11;;;;;;;0.30;0.30;;;21.30;99.90;;;;;;4385944;32;20407;-73
2021/08/08 08:52:37;;;;;;;0.28;0.28;;;21.20;99.90;;;;;;4386178;32;20136;-73
2021/08/08 08:55:04;;;;;;;0.28;0.28;;;21.10;99.90;;;;;;4386149;32;20075;-73
2021/08/08 08:57:30;;;;;;;0.20;0.20;;;21.10;99.90;;;;;;4385934;32;20071;-73
2021/08/08 08:59:58;;;;;;;0.30;0.30;;;21.10;99.90;;;;;;4385996;32;20070;-73
2021/08/08 09:02:23;;;;;;;0.30;0.30;;;21.00;99.90;;;;;;4385372;32;20070;-73
2021/08/08 09:04:49;;;;;;;0.40;0.40;;;20.90;99.90;;;;;;4385368;32;20445;-73
2021/08/08 09:07:15;;;;;;;0.25;0.25;;;20.90;99.90;;;;;;4384796;32;20062;-73
2021/08/08 09:09:40;;;;;;;0.20;0.20;;;21.00;99.90;;;;;;4385225;32;20411;-73
2021/08/08 09:12:07;;;;;;;0.20;0.20;;;21.20;99.90;;;;;;4384717;32;20070;-73
2021/08/08 09:14:34;;;;;;;0.30;0.30;;;21.30;99.90;;;;;;4385982;32;20158;-73
2021/08/08 09:17:00;;;;;;;0.30;0.30;;;21.60;99.90;;;;;;4385141;32;20420;-73
2021/08/08 09:19:29;;;;;;;0.15;0.15;;;21.80;99.90;;;;;;4384978;32;20086;-73
2021/08/08 09:21:54;;;;;;;0.20;0.20;;;21.90;99.90;;;;;;4384872;32;20122;-73
2021/08/08 09:24:25;;;;;;;0.30;0.30;;;21.80;99.90;;;;;;4384214;32;20478;-73
2021/08/08 09:27:04;;;;;;;5.95;1.50;;;22.00;99.90;;;;;;4384384;32;20063;-73
2021/08/08 09:29:30;;;;;;;0.30;0.30;;;22.10;99.90;;;;;;4385428;32;20070;-73
2021/08/08 09:31:56;;;;;;;0.10;0.10;;;22.10;99.90;;;;;;4385464;32;20074;-73
2021/08/08 09:34:31;;;;;;;0.10;0.10;;;22.00;99.90;;;;;;4391964;32;20457;-73
2021/08/08 09:37:00;;;;;;;0.20;0.20;;;21.60;99.90;;;;;;4400498;32;20444;-73
2021/08/08 09:39:29;;;;;;;0.20;0.20;;;21.30;99.90;;;;;;4400015;32;20070;-73
2021/08/08 09:42:13;;;;;;;0.20;0.20;;;21.10;99.90;;;;;;4399842;32;20078;-73
2021/08/08 09:45:06;;;;;;;0.20;0.20;;;20.90;99.90;;;;;;4399580;32;20549;-72
2021/08/08 09:47:53;;;;;;;0.20;0.20;;;21.00;99.90;;;;;;4399965;32;20455;-73
2021/08/08 09:50:22;;;;;;;0.20;0.20;;;21.10;99.90;;;;;;4389440;32;20066;-73
2021/08/08 09:52:52;;;;;;;0.20;0.20;;;21.30;99.90;;;;;;4400568;32;20065;-73
2021/08/08 09:55:23;;;;;;;0.30;0.30;;;21.70;99.90;;;;;;4399670;32;20090;-73
2021/08/08 09:57:49;;;;;;;0.30;0.30;;;21.80;99.90;;;;;;4399815;32;20089;-73
2021/08/08 10:00:22;;;;;;;0.30;0.30;;;21.80;99.90;;;;;;4399643;32;20091;-73
2021/08/08 10:02:48;;;;;;;0.35;0.35;;;22.00;99.90;;;;;;4400092;32;20082;-73
2021/08/08 10:05:13;;;;;;;1.15;0.95;;;22.20;99.90;;;;;;4399270;32;20085;-73
2021/08/08 10:07:39;;;;;;;0.20;0.20;;;22.50;99.90;;;;;;4399620;32;20463;-73
2021/08/08 10:10:05;;;;;;;0.55;0.37;;;22.90;99.90;;;;;;4398889;32;20081;-73
2021/08/08 10:12:58;;;;;;;0.17;0.17;;;23.00;99.90;;;;;;4399893;32;20079;-73
2021/08/08 10:15:24;;;;;;;0.45;0.45;;;23.30;99.90;;;;;;4388550;32;20061;-73
2021/08/08 10:17:50;;;;;;;0.20;0.20;;;23.30;99.90;;;;;;4399384;32;20079;-73
2021/08/08 10:20:16;;;;;;;0.13;0.13;;;23.30;99.90;;;;;;4399332;32;20066;-73
2021/08/08 10:22:44;;;;;;;0.10;0.10;;;23.50;99.90;;;;;;4399760;32;20421;-73
2021/08/08 10:25:10;;;;;;;14.60;0.40;;;23.70;99.90;;;;;;4399839;32;20127;-73
2021/08/08 10:27:36;;;;;;;0.20;0.20;;;23.80;99.90;;;;;;4398956;32;20042;-73
2021/08/08 10:30:04;;;;;;;0.22;0.22;;;23.50;99.90;;;;;;4399303;32;20551;-73
2021/08/08 10:32:30;;;;;;;0.17;0.17;;;23.40;99.90;;;;;;4399244;32;20082;-73
2021/08/08 10:34:56;;;;;;;0.10;0.10;;;23.50;99.90;;;;;;4389174;32;20085;-73
2021/08/08 10:37:24;;;;;;;0.20;0.20;;;23.50;99.90;;;;;;4383943;32;20558;-74
2021/08/08 10:39:50;;;;;;;0.20;0.20;;;23.50;99.90;;;;;;4384267;32;20074;-74
2021/08/08 10:42:16;;;;;;;0.20;0.20;;;23.50;99.90;;;;;;4384319;32;20083;-73
2021/08/08 10:44:47;;;;;;;0.20;0.20;;;23.30;99.90;;;;;;4384214;32;20070;-73
2021/08/08 10:47:25;;;;;;;1.35;0.47;;;23.50;99.90;;;;;;4385165;32;20499;-74
2021/08/08 10:49:50;;;;;;;0.50;0.50;;;24.30;99.90;;;;;;4384346;32;20105;-74
2021/08/08 10:52:16;;;;;;;0.35;0.10;;;24.70;98.90;;;;;;4384635;32;20076;-73
2021/08/08 10:54:44;;;;;;;0.25;0.25;;;24.90;98.50;;;;;;4384146;32;20079;-73
2021/08/08 10:57:11;;;;;;;0.10;0.10;;;24.80;98.00;;;;;;4384937;32;20358;-73
2021/08/08 10:59:43;;;;;;;0.10;0.10;;;24.10;98.60;;;;;;4383842;32;20575;-74
2021/08/08 11:02:10;;;;;;;0.20;0.20;;;23.80;99.50;;;;;;4384531;32;20074;-74
2021/08/08 11:04:37;;;;;;;0.20;0.20;;;23.50;99.80;;;;;;4393019;32;20078;-74
2021/08/08 11:07:04;;;;;;;0.62;0.32;;;23.10;99.90;;;;;;4400362;32;20074;-73
2021/08/08 11:09:31;;;;;;;0.10;0.10;;;22.90;99.90;;;;;;4399106;32;20070;-74
2021/08/08 11:11:57;;;;;;;0.10;0.10;;;22.80;99.90;;;;;;4400088;32;20079;-74
2021/08/08 11:14:23;;;;;;;0.30;0.30;;;23.00;99.90;;;;;;4399026;32;20081;-74
2021/08/08 11:17:05;;;;;;;0.10;0.10;;;23.00;99.90;;;;;;4398872;32;20083;-74
2021/08/08 11:19:34;;;;;;;0.32;0.32;;;23.00;99.90;;;;;;4398760;32;20083;-73
2021/08/08 11:22:17;;;;;;;0.13;0.13;;;22.90;99.90;;;;;;4398252;32;20535;-74
2021/08/08 11:24:55;;;;;;;0.20;0.20;;;22.90;99.90;;;;;;4399894;32;20158;-74
2021/08/08 11:27:29;;;;;;;0.20;0.20;;;23.30;99.90;;;;;;4399216;32;20170;-74
2021/08/08 11:29:55;;;;;;;0.10;0.10;;;23.60;99.90;;;;;;4398224;32;20086;-74
2021/08/08 11:32:28;;;;;;;0.37;0.37;;;23.80;99.90;;;;;;4398683;32;20125;-74
2021/08/08 11:35:12;;;;;;;0.20;0.20;;;24.10;99.40;;;;;;4398471;32;20117;-74
2021/08/08 11:37:41;;;;;;;0.20;0.20;;;23.90;98.90;;;;;;4398547;32;20070;-73
2021/08/08 11:40:24;;;;;;;0.10;0.10;;;24.10;99.60;;;;;;4399326;32;20125;-74
2021/08/08 11:42:57;;;;;;;0.93;0.70;;;24.70;97.50;;;;;;4398919;32;20061;-73
2021/08/08 11:45:41;;;;;;;0.15;0.15;;;24.90;97.10;;;;;;4398723;32;20069;-74
2021/08/08 11:48:08;;;;;;;0.20;0.10;;;24.80;97.20;;;;;;4399984;32;20066;-74
2021/08/08 11:50:35;;;;;;;0.28;0.28;;;24.50;96.60;;;;;;4402044;32;20078;-72
2021/08/08 11:53:03;;;;;;;0.17;0.17;;;24.20;97.20;;;;;;4400603;32;20118;-73
2021/08/08 11:55:31;;;;;;;0.75;0.22;;;24.60;96.90;;;;;;4401413;32;20122;-74
2021/08/08 11:58:05;;;;;;;0.10;0.10;;;24.70;96.50;;;;;;4400736;32;20122;-74
2021/08/08 12:00:32;;;;;;;0.10;0.10;;;25.10;96.00;;;;;;4401672;32;20557;-73
2021/08/08 12:02:57;;;;;;;0.10;0.10;;;24.90;94.70;;;;;;4401241;32;20166;-74
2021/08/08 12:05:25;;;;;;;0.82;0.45;;;24.40;95.40;;;;;;4400774;32;20417;-74
2021/08/08 12:07:51;;;;;;;0.10;0.10;;;24.40;96.00;;;;;;4401718;32;20113;-74
2021/08/08 12:10:27;;;;;;;0.35;0.32;;;24.90;95.60;;;;;;4400935;32;20425;-73
2021/08/08 12:12:52;;;;;;;0.20;0.10;;;25.70;94.10;;;;;;4400778;32;20070;-74
2021/08/08 12:15:33;;;;;;;0.00;0.00;;;26.20;93.80;;;;;;4400545;32;20086;-74
2021/08/08 12:17:59;;;;;;;0.05;0.05;;;26.50;93.50;;;;;;4399655;32;20074;-74
2021/08/08 12:20:32;;;;;;;0.10;0.10;;;26.40;93.70;;;;;;4401869;32;20078;-73
2021/08/08 12:23:15;;;;;;;0.45;0.20;;;26.00;92.90;;;;;;4401422;32;20121;-74
2021/08/08 12:25:44;;;;;;;0.10;0.10;;;25.30;94.00;;;;;;4400548;32;20083;-74
2021/08/08 12:28:10;;;;;;;0.10;0.10;;;24.90;94.00;;;;;;4400855;32;20131;-74
2021/08/08 12:30:36;;;;;;;1.65;0.65;;;24.70;95.20;;;;;;4401269;32;20090;-72
2021/08/08 12:33:04;;;;;;;0.00;0.00;;;25.10;94.40;;;;;;4401113;32;20062;-71
2021/08/08 12:35:35;;;;;;;0.10;0.10;;;25.90;93.80;;;;;;4400306;32;20081;-72
2021/08/08 12:38:07;;;;;;;0.00;0.00;;;26.90;94.00;;;;;;4400086;32;20077;-72
2021/08/08 12:40:42;;;;;;;0.05;0.05;;;27.60;91.00;;;;;;4400263;32;20137;-72
2021/08/08 12:43:08;;;;;;;0.32;0.25;;;27.80;90.50;;;;;;4400954;32;20491;-72
2021/08/08 12:45:36;;;;;;;0.30;0.30;;;28.00;90.10;;;;;;4401486;32;20066;-72
2021/08/08 12:48:01;;;;;;;0.10;0.10;;;28.00;88.80;;;;;;4400535;32;20062;-72